Strona główna
METAR-TAF:

METAR-TAF

Lotnisko :

Frederick Municipal Airport

Frederick, Maryland, Stany Zjednoczone

Szerokość geograficzna: 39-25-03N, Długość geograficzna: 077-22-28W, wysokość: 92 m

Aktualna obserwacja pogody

Raport powstał 43 minut temu, godzina 12:47 UTC
Wiatr 6 kt od południowy zachód
Temperatura 28°C
Wilgotność 48%
Ciśnienie 1008 hPa
Widzialność: 16.1 km
bezchmurnie

METAR: KFDK 031247Z 23006KT 10SM SKC 28/16 A2977

czas: 09:30 (13:30 UTC)


TAF: brakujący

Obserwacja i prognoza pogody dla ponad 4000 lotnisk (raport METAR i TAF).

Dostępne stacje oznaczono żółtymi i czerwonymi punktami na mapie.

Najedź kursorem aby zobaczyć nazwę stacji.

Kliknij aby zobaczyć obserwacje i prognozy pogody.

Aby zmienić mapę: kliknij na zielony przycisk z czarnym krzyżykiem, aby powiększyć; na zielony przycisk z myślnikiem, aby pomniejszyć; na zielone strzałki, aby przejść do map sąsiednich.


METAR-TAF: